Aviation Digital Data Service (ADDS)

Output produced by METARs form (1826 UTC 16 August 2018)
found at http://www.aviationweather.gov/adds/metars/
 
VNKT 161820Z VRB02KT 7000 FEW010 SCT03 BKN100 23/21 Q1012 NOSIG
TAF VNKT 161700Z 1618/1718 13004KT 7000 -RA FEW010 SCT030 BKN100 
     PROB40 1620/1624 24008KT 4000 -RA/SHRA FEW025CB 
     BECMG 1700/1702 VRB02KT 5000 -RA 
     BECMG 1704/1705 16005KT 7000 FEW010 SCT100 
     BECMG 1707/1708 26007KT 8000 FEW015 SCT030 BKN100 
     PROB40 1709/1713 VRB10KT 4000 -RA/SHRA FEW025CB 
     BECMG 1714/1715 16002KT 6000 FEW008 SCT025 BKN100